Time,TemperatureF,DewpointF,PressureIn,WindDirection,WindDirectionDegrees,WindSpeedMPH,WindSpeedGustMPH,Humidity,HourlyPrecipIn,Conditions,Clouds,dailyrainin,SolarRadiationWatts/m^2,SoftwareType,DateUTC
2013-01-05 00:00:00,29.4,16.9,30.01,West,275,2.0,5.0,59,0.00,,---,0.00,0.00,VWS V14.00,2013-01-05 05:00:00,
2013-01-05 00:01:00,29.4,16.9,30.01,West,275,0.0,4.0,59,0.00,,---,0.00,0.00,VWS V14.00,2013-01-05 05:01:00,
2013-01-05 00:06:00,29.4,16.9,30.01,West,271,1.0,1.0,59,0.00,,---,0.00,0.00,VWS V14.00,2013-01-05 05:06:00,
2013-01-05 00:11:00,29.1,16.6,30.02,West,267,5.0,5.0,59,0.00,,---,0.00,0.00,VWS V14.00,2013-01-05 05:11:00,
2013-01-05 00:16:00,29.3,16.8,30.01,West,272,4.0,7.0,59,0.00,,---,0.00,0.00,VWS V14.00,2013-01-05 05:16:00,
2013-01-05 00:21:00,29.3,16.8,30.01,West,281,2.0,3.0,59,0.00,,---,0.00,0.00,VWS V14.00,2013-01-05 05:21:00,
2013-01-05 00:26:00,29.3,16.8,30.01,SW,227,6.0,6.0,59,0.00,,---,0.00,0.00,VWS V14.00,2013-01-05 05:26:00,
2013-01-05 00:31:00,29.1,16.6,30.02,SSW,197,1.0,4.0,59,0.00,,---,0.00,0.00,VWS V14.00,2013-01-05 05:31:00,
2013-01-05 00:36:00,29.3,16.8,30.02,WSW,237,2.0,7.0,59,0.00,,---,0.00,0.00,VWS V14.00,2013-01-05 05:36:00,
2013-01-05 00:41:00,29.3,16.8,30.02,West,273,3.0,4.0,59,0.00,,---,0.00,0.00,VWS V14.00,2013-01-05 05:41:00,
2013-01-05 00:46:00,29.3,16.8,30.02,West,275,3.0,3.0,59,0.00,,---,0.00,0.00,VWS V14.00,2013-01-05 05:46:00,
2013-01-05 00:51:00,29.1,16.6,30.02,West,269,3.0,5.0,59,0.00,,---,0.00,0.00,VWS V14.00,2013-01-05 05:51:00,
2013-01-05 00:56:00,29.1,16.6,30.02,WSW,257,4.0,4.0,59,0.00,,---,0.00,0.00,VWS V14.00,2013-01-05 05:56:00,
2013-01-05 01:01:00,29.0,16.5,30.02,WSW,256,2.0,3.0,59,0.00,,---,0.00,0.00,VWS V14.00,2013-01-05 06:01:00,
2013-01-05 01:06:00,29.1,16.6,30.02,WSW,240,5.0,5.0,59,0.00,,---,0.00,0.00,VWS V14.00,2013-01-05 06:06:00,
2013-01-05 01:11:00,29.1,16.6,30.03,SW,234,1.0,4.0,59,0.00,,---,0.00,0.00,VWS V14.00,2013-01-05 06:11:00,
2013-01-05 01:16:00,29.0,16.5,30.03,WSW,246,3.0,5.0,59,0.00,,---,0.00,0.00,VWS V14.00,2013-01-05 06:16:00,
2013-01-05 01:21:00,28.8,16.3,30.03,SW,236,5.0,5.0,59,0.00,,---,0.00,0.00,VWS V14.00,2013-01-05 06:21:00,
2013-01-05 01:26:00,28.8,16.7,30.04,West,275,3.0,5.0,60,0.00,,---,0.00,0.00,VWS V14.00,2013-01-05 06:26:00,
2013-01-05 01:31:00,28.7,16.6,30.04,WNW,290,5.0,5.0,60,0.00,,---,0.00,0.00,VWS V14.00,2013-01-05 06:31:00,
2013-01-05 01:36:00,28.7,16.6,30.04,WSW,250,3.0,3.0,60,0.00,,---,0.00,0.00,VWS V14.00,2013-01-05 06:36:00,
2013-01-05 01:41:00,28.5,16.4,30.05,WSW,239,1.0,4.0,60,0.00,,---,0.00,0.00,VWS V14.00,2013-01-05 06:41:00,
2013-01-05 01:46:00,28.5,16.4,30.05,WSW,243,1.0,2.0,60,0.00,,---,0.00,0.00,VWS V14.00,2013-01-05 06:46:00,
2013-01-05 01:51:00,28.4,16.3,30.06,WSW,244,2.0,2.0,60,0.00,,---,0.00,0.00,VWS V14.00,2013-01-05 06:51:00,
2013-01-05 01:56:00,28.2,16.5,30.06,WSW,246,2.0,4.0,61,0.00,,---,0.00,0.00,VWS V14.00,2013-01-05 06:56:00,
2013-01-05 02:01:00,28.1,16.4,30.06,West,279,0.0,6.0,61,0.00,,---,0.00,0.00,VWS V14.00,2013-01-05 07:01:00,
2013-01-05 02:06:00,28.1,16.4,30.06,West,277,3.0,4.0,61,0.00,,---,0.00,0.00,VWS V14.00,2013-01-05 07:06:00,
2013-01-05 02:11:00,28.1,16.4,30.06,West,280,1.0,3.0,61,0.00,,---,0.00,0.00,VWS V14.00,2013-01-05 07:11:00,
2013-01-05 02:16:00,28.1,16.4,30.07,West,264,3.0,5.0,61,0.00,,---,0.00,0.00,VWS V14.00,2013-01-05 07:16:00,
2013-01-05 02:21:00,28.1,16.4,30.07,West,280,4.0,5.0,61,0.00,,---,0.00,0.00,VWS V14.00,2013-01-05 07:21:00,
2013-01-05 02:26:00,28.1,16.4,30.07,West,279,3.0,5.0,61,0.00,,---,0.00,0.00,VWS V14.00,2013-01-05 07:26:00,
2013-01-05 02:31:00,28.1,16.4,30.07,West,279,0.0,1.0,61,0.00,,---,0.00,0.00,VWS V14.00,2013-01-05 07:31:00,
2013-01-05 02:36:00,27.9,16.2,30.07,West,278,2.0,3.0,61,0.00,,---,0.00,0.00,VWS V14.00,2013-01-05 07:36:00,
2013-01-05 02:41:00,28.1,16.4,30.08,West,270,1.0,3.0,61,0.00,,---,0.00,0.00,VWS V14.00,2013-01-05 07:41:00,
2013-01-05 02:46:00,28.1,16.4,30.08,West,263,3.0,4.0,61,0.00,,---,0.00,0.00,VWS V14.00,2013-01-05 07:46:00,
2013-01-05 02:51:00,28.1,16.4,30.08,WSW,240,2.0,5.0,61,0.00,,---,0.00,0.00,VWS V14.00,2013-01-05 07:51:00,
2013-01-05 02:56:00,27.9,16.6,30.08,SW,234,2.0,6.0,62,0.00,,---,0.00,0.00,VWS V14.00,2013-01-05 07:56:00,
2013-01-05 03:01:00,28.1,16.8,30.08,WSW,238,2.0,3.0,62,0.00,,---,0.00,0.00,VWS V14.00,2013-01-05 08:01:00,
2013-01-05 03:06:00,28.1,16.8,30.08,WSW,244,5.0,5.0,62,0.00,,---,0.00,0.00,VWS V14.00,2013-01-05 08:06:00,
2013-01-05 03:11:00,28.2,16.9,30.08,SW,230,4.0,8.0,62,0.00,,---,0.00,0.00,VWS V14.00,2013-01-05 08:11:00,
2013-01-05 03:16:00,28.4,17.1,30.08,West,259,0.0,2.0,62,0.00,,---,0.00,0.00,VWS V14.00,2013-01-05 08:16:00,
2013-01-05 03:21:00,28.5,17.1,30.09,SW,228,4.0,6.0,62,0.00,,---,0.00,0.00,VWS V14.00,2013-01-05 08:21:00,
2013-01-05 03:26:00,28.7,17.3,30.09,SW,225,2.0,3.0,62,0.00,,---,0.00,0.00,VWS V14.00,2013-01-05 08:26:00,
2013-01-05 03:31:00,28.7,17.3,30.09,WSW,246,2.0,2.0,62,0.00,,---,0.00,0.00,VWS V14.00,2013-01-05 08:31:00,
2013-01-05 03:36:00,28.8,17.1,30.09,SW,229,1.0,3.0,61,0.00,,---,0.00,0.00,VWS V14.00,2013-01-05 08:36:00,
2013-01-05 03:41:00,28.8,17.4,30.10,SW,225,4.0,7.0,62,0.00,,---,0.00,0.00,VWS V14.00,2013-01-05 08:41:00,
2013-01-05 03:46:00,29.0,17.6,30.10,WSW,238,1.0,4.0,62,0.00,,---,0.00,0.00,VWS V14.00,2013-01-05 08:46:00,
2013-01-05 03:51:00,29.0,17.6,30.10,WSW,243,3.0,3.0,62,0.00,,---,0.00,0.00,VWS V14.00,2013-01-05 08:51:00,
2013-01-05 03:56:00,29.0,17.6,30.10,WSW,244,0.0,1.0,62,0.00,,---,0.00,0.00,VWS V14.00,2013-01-05 08:56:00,
2013-01-05 04:01:00,29.0,17.6,30.10,SW,232,1.0,5.0,62,0.00,,---,0.00,0.00,VWS V14.00,2013-01-05 09:01:00,
2013-01-05 04:06:00,29.0,17.6,30.10,SW,229,0.0,0.0,62,0.00,,---,0.00,0.00,VWS V14.00,2013-01-05 09:06:00,
2013-01-05 04:11:00,29.0,18.0,30.10,SW,215,1.0,6.0,63,0.00,,---,0.00,0.00,VWS V14.00,2013-01-05 09:11:00,
2013-01-05 04:16:00,29.0,18.0,30.10,SW,215,2.0,2.0,63,0.00,,---,0.00,0.00,VWS V14.00,2013-01-05 09:16:00,
2013-01-05 04:21:00,29.0,18.0,30.11,SW,215,0.0,2.0,63,0.00,,---,0.00,0.00,VWS V14.00,2013-01-05 09:21:00,
2013-01-05 04:26:00,29.0,18.0,30.11,SW,215,1.0,1.0,63,0.00,,---,0.00,0.00,VWS V14.00,2013-01-05 09:26:00,
2013-01-05 04:31:00,28.8,18.2,30.11,SW,215,1.0,2.0,64,0.00,,---,0.00,0.00,VWS V14.00,2013-01-05 09:31:00,
2013-01-05 04:36:00,28.7,18.1,30.11,SW,215,1.0,2.0,64,0.00,,---,0.00,0.00,VWS V14.00,2013-01-05 09:36:00,
2013-01-05 04:41:00,28.7,18.4,30.11,SW,215,3.0,3.0,65,0.00,,---,0.00,0.00,VWS V14.00,2013-01-05 09:41:00,
2013-01-05 04:46:00,28.5,18.2,30.11,SW,215,4.0,4.0,65,0.00,,---,0.00,0.00,VWS V14.00,2013-01-05 09:46:00,
2013-01-05 04:51:00,28.5,18.2,30.11,SW,215,1.0,4.0,65,0.00,,---,0.00,0.00,VWS V14.00,2013-01-05 09:51:00,
2013-01-05 04:56:00,28.4,18.1,30.11,SW,215,0.0,1.0,65,0.00,,---,0.00,0.00,VWS V14.00,2013-01-05 09:56:00,
2013-01-05 05:01:00,28.4,18.1,30.11,SW,217,1.0,4.0,65,0.00,,---,0.00,0.00,VWS V14.00,2013-01-05 10:01:00,
2013-01-05 05:06:00,28.4,18.1,30.12,SW,217,3.0,4.0,65,0.00,,---,0.00,0.00,VWS V14.00,2013-01-05 10:06:00,
2013-01-05 05:11:00,28.4,18.1,30.12,SSW,213,1.0,3.0,65,0.00,,---,0.00,0.00,VWS V14.00,2013-01-05 10:11:00,
2013-01-05 05:16:00,28.5,18.2,30.12,SSW,212,0.0,0.0,65,0.00,,---,0.00,0.00,VWS V14.00,2013-01-05 10:16:00,
2013-01-05 05:21:00,28.5,18.2,30.12,SSW,211,0.0,0.0,65,0.00,,---,0.00,0.00,VWS V14.00,2013-01-05 10:21:00,
2013-01-05 05:26:00,28.5,18.2,30.13,SSW,211,0.0,3.0,65,0.00,,---,0.00,0.00,VWS V14.00,2013-01-05 10:26:00,
2013-01-05 05:31:00,28.5,18.2,30.14,SSW,212,0.0,0.0,65,0.00,,---,0.00,0.00,VWS V14.00,2013-01-05 10:31:00,
2013-01-05 05:36:00,28.4,18.5,30.14,SSW,213,1.0,3.0,66,0.00,,---,0.00,0.00,VWS V14.00,2013-01-05 10:36:00,
2013-01-05 05:41:00,28.4,18.5,30.15,SSW,213,1.0,2.0,66,0.00,,---,0.00,0.00,VWS V14.00,2013-01-05 10:41:00,
2013-01-05 05:46:00,28.4,18.5,30.16,SW,215,0.0,3.0,66,0.00,,---,0.00,0.00,VWS V14.00,2013-01-05 10:46:00,
2013-01-05 05:51:00,28.4,18.5,30.16,SW,232,3.0,5.0,66,0.00,,---,0.00,0.00,VWS V14.00,2013-01-05 10:51:00,
2013-01-05 05:56:00,28.5,18.6,30.16,SW,229,5.0,6.0,66,0.00,,---,0.00,0.00,VWS V14.00,2013-01-05 10:56:00,
2013-01-05 06:01:00,28.7,18.8,30.16,SW,221,0.0,2.0,66,0.00,,---,0.00,0.00,VWS V14.00,2013-01-05 11:01:00,
2013-01-05 06:06:00,28.7,18.8,30.17,SW,223,2.0,2.0,66,0.00,,---,0.00,0.00,VWS V14.00,2013-01-05 11:06:00,
2013-01-05 06:11:00,28.7,18.8,30.16,SW,221,3.0,5.0,66,0.00,,---,0.00,0.00,VWS V14.00,2013-01-05 11:11:00,
2013-01-05 06:16:00,28.5,18.6,30.16,SW,221,1.0,4.0,66,0.00,,---,0.00,0.00,VWS V14.00,2013-01-05 11:16:00,
2013-01-05 06:21:00,28.4,18.9,30.17,SSW,196,3.0,3.0,67,0.00,,---,0.00,0.00,VWS V14.00,2013-01-05 11:21:00,
2013-01-05 06:26:00,28.2,18.7,30.17,SSW,213,0.0,0.0,67,0.00,,---,0.00,0.00,VWS V14.00,2013-01-05 11:26:00,
2013-01-05 06:31:00,28.1,18.6,30.18,SW,223,1.0,3.0,67,0.00,,---,0.00,0.00,VWS V14.00,2013-01-05 11:31:00,
2013-01-05 06:36:00,27.9,18.7,30.18,SSW,212,3.0,4.0,68,0.00,,---,0.00,0.00,VWS V14.00,2013-01-05 11:36:00,
2013-01-05 06:41:00,27.8,18.6,30.18,SW,230,4.0,5.0,68,0.00,,---,0.00,0.00,VWS V14.00,2013-01-05 11:41:00,
2013-01-05 06:46:00,27.8,18.6,30.19,SSW,206,1.0,5.0,68,0.00,,---,0.00,0.00,VWS V14.00,2013-01-05 11:46:00,
2013-01-05 06:51:00,27.6,18.4,30.20,SSW,209,1.0,3.0,68,0.00,,---,0.00,0.00,VWS V14.00,2013-01-05 11:51:00,
2013-01-05 06:56:00,27.8,18.6,30.21,SSW,208,1.0,3.0,68,0.00,,---,0.00,0.00,VWS V14.00,2013-01-05 11:56:00,
2013-01-05 07:01:00,27.6,18.4,30.21,SSW,208,1.0,1.0,68,0.00,,---,0.00,0.00,VWS V14.00,2013-01-05 12:01:00,
2013-01-05 07:06:00,27.6,18.8,30.21,SSW,207,0.0,2.0,69,0.00,,---,0.00,0.00,VWS V14.00,2013-01-05 12:06:00,
2013-01-05 07:11:00,27.5,18.7,30.22,SSW,207,2.0,4.0,69,0.00,,---,0.00,0.00,VWS V14.00,2013-01-05 12:11:00,
2013-01-05 07:16:00,27.5,19.0,30.22,SSW,207,0.0,0.0,70,0.00,,---,0.00,0.00,VWS V14.00,2013-01-05 12:16:00,
2013-01-05 07:21:00,27.5,19.0,30.22,SSW,207,2.0,4.0,70,0.00,,---,0.00,0.00,VWS V14.00,2013-01-05 12:21:00,
2013-01-05 07:26:00,27.6,19.1,30.22,SSW,207,3.0,3.0,70,0.00,,---,0.00,5.00,VWS V14.00,2013-01-05 12:26:00,
2013-01-05 07:31:00,27.6,19.4,30.23,SSW,207,4.0,4.0,71,0.00,,---,0.00,7.00,VWS V14.00,2013-01-05 12:31:00,
2013-01-05 07:36:00,27.8,19.6,30.22,SSW,205,0.0,0.0,71,0.00,,---,0.00,9.00,VWS V14.00,2013-01-05 12:36:00,
2013-01-05 07:41:00,28.1,19.6,30.23,SSW,202,0.0,1.0,70,0.00,,---,0.00,14.00,VWS V14.00,2013-01-05 12:41:00,
2013-01-05 07:46:00,28.5,20.0,30.23,SSW,209,5.0,5.0,70,0.00,,---,0.00,14.00,VWS V14.00,2013-01-05 12:46:00,
2013-01-05 07:51:00,29.0,20.1,30.23,SW,227,3.0,3.0,69,0.00,,---,0.00,16.00,VWS V14.00,2013-01-05 12:51:00,
2013-01-05 07:56:00,29.3,20.4,30.24,SW,223,4.0,4.0,69,0.00,,---,0.00,16.00,VWS V14.00,2013-01-05 12:56:00,
2013-01-05 08:01:00,29.4,20.5,30.23,SW,226,4.0,4.0,69,0.00,,---,0.00,21.00,VWS V14.00,2013-01-05 13:01:00,
2013-01-05 08:06:00,29.7,20.5,30.24,SW,236,5.0,5.0,68,0.00,,---,0.00,26.00,VWS V14.00,2013-01-05 13:06:00,
2013-01-05 08:11:00,29.8,20.5,30.25,SW,233,6.0,9.0,68,0.00,,---,0.00,32.00,VWS V14.00,2013-01-05 13:11:00,
2013-01-05 08:16:00,30.0,20.4,30.25,SW,229,4.0,4.0,67,0.00,,---,0.00,32.00,VWS V14.00,2013-01-05 13:16:00,
2013-01-05 08:21:00,30.0,20.7,30.25,SW,229,2.0,8.0,68,0.00,,---,0.00,47.00,VWS V14.00,2013-01-05 13:21:00,
2013-01-05 08:26:00,30.1,20.8,30.26,WSW,245,2.0,5.0,68,0.00,,---,0.00,44.00,VWS V14.00,2013-01-05 13:26:00,
2013-01-05 08:31:00,30.1,20.5,30.26,WSW,242,3.0,4.0,67,0.00,,---,0.00,40.00,VWS V14.00,2013-01-05 13:31:00,
2013-01-05 08:36:00,30.3,21.0,30.26,WSW,240,1.0,5.0,68,0.00,,---,0.00,49.00,VWS V14.00,2013-01-05 13:36:00,
2013-01-05 08:41:00,30.3,21.0,30.27,WSW,238,2.0,4.0,68,0.00,,---,0.00,58.00,VWS V14.00,2013-01-05 13:41:00,
2013-01-05 08:46:00,30.3,21.0,30.27,WSW,239,0.0,3.0,68,0.00,,---,0.00,54.00,VWS V14.00,2013-01-05 13:46:00,
2013-01-05 08:51:00,30.4,21.1,30.27,WSW,240,3.0,3.0,68,0.00,,---,0.00,58.00,VWS V14.00,2013-01-05 13:51:00,
2013-01-05 08:56:00,30.6,21.3,30.28,WSW,242,1.0,2.0,68,0.00,,---,0.00,63.00,VWS V14.00,2013-01-05 13:56:00,
2013-01-05 09:01:00,30.6,21.0,30.28,SW,235,5.0,5.0,67,0.00,,---,0.00,74.00,VWS V14.00,2013-01-05 14:01:00,
2013-01-05 09:06:00,30.7,21.1,30.28,WSW,237,1.0,3.0,67,0.00,,---,0.00,91.00,VWS V14.00,2013-01-05 14:06:00,
2013-01-05 09:11:00,31.0,21.3,30.28,WSW,237,0.0,1.0,67,0.00,,---,0.00,98.00,VWS V14.00,2013-01-05 14:11:00,
2013-01-05 09:16:00,31.3,21.3,30.28,WSW,258,3.0,4.0,66,0.00,,---,0.00,100.00,VWS V14.00,2013-01-05 14:16:00,
2013-01-05 09:21:00,31.5,21.5,30.27,West,260,0.0,1.0,66,0.00,,---,0.00,100.00,VWS V14.00,2013-01-05 14:21:00,
2013-01-05 09:26:00,31.8,21.4,30.28,West,271,4.0,5.0,65,0.00,,---,0.00,88.00,VWS V14.00,2013-01-05 14:26:00,
2013-01-05 09:31:00,32.1,21.3,30.27,WNW,291,5.0,6.0,64,0.00,,---,0.00,91.00,VWS V14.00,2013-01-05 14:31:00,
2013-01-05 09:36:00,32.4,21.2,30.28,WNW,297,4.0,5.0,63,0.00,,---,0.00,72.00,VWS V14.00,2013-01-05 14:36:00,
2013-01-05 09:41:00,32.5,21.3,30.28,WNW,290,3.0,4.0,63,0.00,,---,0.00,44.00,VWS V14.00,2013-01-05 14:41:00,
2013-01-05 09:46:00,32.7,21.5,30.29,West,272,4.0,5.0,63,0.00,,---,0.00,60.00,VWS V14.00,2013-01-05 14:46:00,
2013-01-05 09:51:00,32.8,21.2,30.29,West,271,5.0,6.0,62,0.00,,---,0.00,58.00,VWS V14.00,2013-01-05 14:51:00,
2013-01-05 09:56:00,32.9,21.3,30.29,SW,215,3.0,6.0,62,0.00,,---,0.00,54.00,VWS V14.00,2013-01-05 14:56:00,
2013-01-05 10:01:00,33.2,21.2,30.29,SW,221,7.0,7.0,61,0.00,,---,0.00,46.00,VWS V14.00,2013-01-05 15:01:00,
2013-01-05 10:06:00,33.4,21.4,30.30,SW,223,2.0,3.0,61,0.00,,---,0.00,74.00,VWS V14.00,2013-01-05 15:06:00,
2013-01-05 10:11:00,33.8,21.4,30.29,West,259,1.0,1.0,60,0.00,,---,0.00,74.00,VWS V14.00,2013-01-05 15:11:00,
2013-01-05 10:16:00,34.1,21.3,30.29,West,270,3.0,3.0,59,0.00,,---,0.00,69.00,VWS V14.00,2013-01-05 15:16:00,
2013-01-05 10:21:00,34.4,21.6,30.29,WNW,302,7.0,7.0,59,0.00,,---,0.00,47.00,VWS V14.00,2013-01-05 15:21:00,
2013-01-05 10:26:00,34.7,21.9,30.29,WNW,299,5.0,6.0,59,0.00,,---,0.00,46.00,VWS V14.00,2013-01-05 15:26:00,
2013-01-05 10:31:00,35.2,21.9,30.29,NW,309,10.0,14.0,58,0.00,,---,0.00,47.00,VWS V14.00,2013-01-05 15:31:00,
2013-01-05 10:36:00,35.3,21.6,30.30,NW,305,3.0,6.0,57,0.00,,---,0.00,63.00,VWS V14.00,2013-01-05 15:36:00,
2013-01-05 10:41:00,35.3,21.6,30.30,West,265,8.0,10.0,57,0.00,,---,0.00,86.00,VWS V14.00,2013-01-05 15:41:00,
2013-01-05 10:46:00,35.6,21.5,30.30,WNW,296,7.0,9.0,56,0.00,,---,0.00,109.00,VWS V14.00,2013-01-05 15:46:00,
2013-01-05 10:51:00,36.0,21.8,30.30,West,275,5.0,5.0,56,0.00,,---,0.00,202.00,VWS V14.00,2013-01-05 15:51:00,
2013-01-05 10:56:00,36.6,22.4,30.30,NW,317,4.0,5.0,56,0.00,,---,0.00,234.00,VWS V14.00,2013-01-05 15:56:00,
2013-01-05 11:01:00,37.0,22.8,30.30,WNW,292,11.0,11.0,56,0.00,,---,0.00,178.00,VWS V14.00,2013-01-05 16:01:00,
2013-01-05 11:06:00,37.3,22.6,30.30,NW,317,7.0,12.0,55,0.00,,---,0.00,134.00,VWS V14.00,2013-01-05 16:06:00,
2013-01-05 11:11:00,37.5,22.4,30.29,NW,305,5.0,5.0,54,0.00,,---,0.00,172.00,VWS V14.00,2013-01-05 16:11:00,
2013-01-05 11:16:00,37.6,22.5,30.29,NW,307,7.0,10.0,54,0.00,,---,0.00,144.00,VWS V14.00,2013-01-05 16:16:00,
2013-01-05 11:21:00,37.6,22.9,30.30,North,355,11.0,11.0,55,0.00,,---,0.00,181.00,VWS V14.00,2013-01-05 16:21:00,
2013-01-05 11:26:00,37.8,22.7,30.30,WNW,290,7.0,10.0,54,0.00,,---,0.00,172.00,VWS V14.00,2013-01-05 16:26:00,
2013-01-05 11:31:00,37.9,22.8,30.29,NNW,329,5.0,11.0,54,0.00,,---,0.00,121.00,VWS V14.00,2013-01-05 16:31:00,
2013-01-05 11:36:00,37.8,22.2,30.29,NW,315,3.0,10.0,53,0.00,,---,0.00,74.00,VWS V14.00,2013-01-05 16:36:00,
2013-01-05 11:41:00,37.5,22.4,30.30,NW,304,6.0,9.0,54,0.00,,---,0.00,93.00,VWS V14.00,2013-01-05 16:41:00,
2013-01-05 11:46:00,37.6,22.5,30.30,NNW,333,14.0,14.0,54,0.00,,---,0.00,97.00,VWS V14.00,2013-01-05 16:46:00,
2013-01-05 11:51:00,37.9,22.3,30.30,NNW,342,8.0,11.0,53,0.00,,---,0.00,83.00,VWS V14.00,2013-01-05 16:51:00,
2013-01-05 11:56:00,38.0,23.3,30.29,WNW,294,11.0,11.0,55,0.00,,---,0.00,65.00,VWS V14.00,2013-01-05 16:56:00,
2013-01-05 12:01:00,37.9,21.9,30.28,NNW,348,7.0,15.0,52,0.00,,---,0.00,56.00,VWS V14.00,2013-01-05 17:01:00,
2013-01-05 12:06:00,37.5,21.9,30.28,NNW,327,15.0,17.0,53,0.00,,---,0.00,58.00,VWS V14.00,2013-01-05 17:06:00,
2013-01-05 12:11:00,37.2,21.2,30.28,NW,318,11.0,11.0,52,0.00,,---,0.00,88.00,VWS V14.00,2013-01-05 17:11:00,
2013-01-05 12:16:00,37.5,21.0,30.28,ENE,63,10.0,11.0,51,0.00,,---,0.00,118.00,VWS V14.00,2013-01-05 17:16:00,
2013-01-05 12:21:00,37.9,21.4,30.27,NW,313,12.0,12.0,51,0.00,,---,0.00,417.00,VWS V14.00,2013-01-05 17:21:00,
2013-01-05 12:26:00,38.3,21.8,30.27,WNW,290,9.0,11.0,51,0.00,,---,0.00,411.00,VWS V14.00,2013-01-05 17:26:00,
2013-01-05 12:31:00,38.8,22.2,30.26,WNW,291,8.0,9.0,51,0.00,,---,0.00,418.00,VWS V14.00,2013-01-05 17:31:00,
2013-01-05 12:36:00,38.9,21.9,30.26,NW,304,9.0,11.0,50,0.00,,---,0.00,396.00,VWS V14.00,2013-01-05 17:36:00,
2013-01-05 12:41:00,39.1,21.6,30.26,West,267,15.0,15.0,49,0.00,,---,0.00,406.00,VWS V14.00,2013-01-05 17:41:00,
2013-01-05 12:46:00,39.1,21.6,30.27,WNW,296,6.0,14.0,49,0.00,,---,0.00,283.00,VWS V14.00,2013-01-05 17:46:00,
2013-01-05 12:51:00,39.1,21.6,30.27,NW,320,8.0,10.0,49,0.00,,---,0.00,406.00,VWS V14.00,2013-01-05 17:51:00,
2013-01-05 12:56:00,39.1,21.6,30.26,NNW,329,8.0,8.0,49,0.00,,---,0.00,343.00,VWS V14.00,2013-01-05 17:56:00,
2013-01-05 13:01:00,39.2,21.7,30.26,NNW,330,3.0,9.0,49,0.00,,---,0.00,376.00,VWS V14.00,2013-01-05 18:01:00,
2013-01-05 13:06:00,39.2,21.2,30.26,NW,313,10.0,12.0,48,0.00,,---,0.00,346.00,VWS V14.00,2013-01-05 18:06:00,
2013-01-05 13:11:00,39.1,21.1,30.26,NNW,331,14.0,17.0,48,0.00,,---,0.00,359.00,VWS V14.00,2013-01-05 18:11:00,
2013-01-05 13:16:00,39.1,21.1,30.27,NNE,19,9.0,15.0,48,0.00,,---,0.00,392.00,VWS V14.00,2013-01-05 18:16:00,
2013-01-05 13:21:00,39.1,21.6,30.26,NNW,340,5.0,5.0,49,0.00,,---,0.00,352.00,VWS V14.00,2013-01-05 18:21:00,
2013-01-05 13:26:00,38.8,22.7,30.26,North,355,7.0,11.0,52,0.00,,---,0.01,353.00,VWS V14.00,2013-01-05 18:26:00,
2013-01-05 13:31:00,38.3,21.3,30.26,NW,315,4.0,9.0,50,0.00,,---,0.01,116.00,VWS V14.00,2013-01-05 18:31:00,
2013-01-05 13:36:00,37.9,20.9,30.25,North,11,3.0,8.0,50,0.00,,---,0.01,190.00,VWS V14.00,2013-01-05 18:36:00,
2013-01-05 13:41:00,37.9,21.9,30.26,NW,319,3.0,5.0,52,0.00,,---,0.01,302.00,VWS V14.00,2013-01-05 18:41:00,
2013-01-05 13:46:00,37.9,20.9,30.26,NNW,337,7.0,9.0,50,0.00,,---,0.01,181.00,VWS V14.00,2013-01-05 18:46:00,
2013-01-05 13:51:00,38.0,21.5,30.27,NW,306,4.0,7.0,51,0.00,,---,0.01,292.00,VWS V14.00,2013-01-05 18:51:00,
2013-01-05 13:56:00,38.3,21.8,30.27,NW,321,2.0,3.0,51,0.00,,---,0.01,373.00,VWS V14.00,2013-01-05 18:56:00,
2013-01-05 14:01:00,38.3,21.3,30.27,WNW,292,4.0,5.0,50,0.00,,---,0.01,304.00,VWS V14.00,2013-01-05 19:01:00,
2013-01-05 14:06:00,38.2,20.7,30.27,WNW,302,10.0,12.0,49,0.00,,---,0.01,107.00,VWS V14.00,2013-01-05 19:06:00,
2013-01-05 14:11:00,38.0,21.5,30.27,North,360,3.0,3.0,51,0.00,,---,0.01,128.00,VWS V14.00,2013-01-05 19:11:00,
2013-01-05 14:16:00,38.0,22.0,30.27,WNW,294,10.0,10.0,52,0.00,,---,0.01,171.00,VWS V14.00,2013-01-05 19:16:00,
2013-01-05 14:21:00,38.3,21.3,30.27,WNW,283,4.0,4.0,50,0.00,,---,0.01,95.00,VWS V14.00,2013-01-05 19:21:00,
2013-01-05 14:26:00,38.3,21.8,30.28,NW,321,5.0,5.0,51,0.00,,---,0.01,79.00,VWS V14.00,2013-01-05 19:26:00,
2013-01-05 14:31:00,38.3,21.3,30.28,NW,319,4.0,4.0,50,0.00,,---,0.01,93.00,VWS V14.00,2013-01-05 19:31:00,
2013-01-05 14:36:00,38.2,21.2,30.28,NNW,336,2.0,4.0,50,0.00,,---,0.01,67.00,VWS V14.00,2013-01-05 19:36:00,
2013-01-05 14:41:00,37.9,21.9,30.28,NNW,342,2.0,2.0,52,0.00,,---,0.02,67.00,VWS V14.00,2013-01-05 19:41:00,
2013-01-05 14:46:00,37.9,21.4,30.28,WNW,303,5.0,5.0,51,0.00,,---,0.02,60.00,VWS V14.00,2013-01-05 19:46:00,
2013-01-05 14:51:00,37.9,20.9,30.29,NNW,328,3.0,3.0,50,0.00,,---,0.02,46.00,VWS V14.00,2013-01-05 19:51:00,
2013-01-05 14:56:00,38.0,21.5,30.29,NW,323,0.0,0.0,51,0.00,,---,0.02,44.00,VWS V14.00,2013-01-05 19:56:00,
2013-01-05 15:01:00,37.9,20.9,30.29,North,349,2.0,2.0,50,0.00,,---,0.02,39.00,VWS V14.00,2013-01-05 20:01:00,
2013-01-05 15:06:00,37.9,21.9,30.29,NNW,341,0.0,0.0,52,0.00,,---,0.02,148.00,VWS V14.00,2013-01-05 20:06:00,
2013-01-05 15:11:00,37.8,21.8,30.30,NW,305,4.0,5.0,52,0.00,,---,0.02,130.00,VWS V14.00,2013-01-05 20:11:00,
2013-01-05 15:16:00,37.6,21.6,30.30,WNW,301,3.0,3.0,52,0.00,,---,0.02,104.00,VWS V14.00,2013-01-05 20:16:00,
2013-01-05 15:21:00,37.6,21.1,30.30,WNW,299,2.0,3.0,51,0.00,,---,0.02,79.00,VWS V14.00,2013-01-05 20:21:00,
2013-01-05 15:26:00,37.6,21.6,30.30,NW,306,4.0,4.0,52,0.00,,---,0.02,56.00,VWS V14.00,2013-01-05 20:26:00,
2013-01-05 15:31:00,37.5,21.5,30.30,WNW,294,3.0,3.0,52,0.00,,---,0.02,39.00,VWS V14.00,2013-01-05 20:31:00,
2013-01-05 15:36:00,37.5,21.5,30.29,NW,304,9.0,9.0,52,0.00,,---,0.02,32.00,VWS V14.00,2013-01-05 20:36:00,
2013-01-05 15:41:00,37.3,21.3,30.29,WNW,299,2.0,2.0,52,0.00,,---,0.02,28.00,VWS V14.00,2013-01-05 20:41:00,
2013-01-05 15:46:00,37.3,20.9,30.30,NNW,339,3.0,5.0,51,0.00,,---,0.02,26.00,VWS V14.00,2013-01-05 20:46:00,
2013-01-05 15:51:00,37.2,20.8,30.30,NW,320,3.0,3.0,51,0.00,,---,0.02,25.00,VWS V14.00,2013-01-05 20:51:00,
2013-01-05 15:56:00,37.0,20.1,30.30,NE,34,0.0,1.0,50,0.00,,---,0.02,21.00,VWS V14.00,2013-01-05 20:56:00,
2013-01-05 16:01:00,36.9,20.5,30.30,NW,325,5.0,5.0,51,0.00,,---,0.02,19.00,VWS V14.00,2013-01-05 21:01:00,
2013-01-05 16:06:00,36.8,20.8,30.30,NW,305,2.0,3.0,52,0.00,,---,0.02,18.00,VWS V14.00,2013-01-05 21:06:00,
2013-01-05 16:11:00,36.5,21.0,30.30,NW,305,1.0,4.0,53,0.00,,---,0.02,16.00,VWS V14.00,2013-01-05 21:11:00,
2013-01-05 16:16:00,36.2,20.7,30.30,North,9,0.0,2.0,53,0.00,,---,0.02,14.00,VWS V14.00,2013-01-05 21:16:00,
2013-01-05 16:21:00,35.9,20.9,30.30,North,355,3.0,4.0,54,0.00,,---,0.02,9.00,VWS V14.00,2013-01-05 21:21:00,
2013-01-05 16:26:00,35.6,20.6,30.30,North,355,0.0,3.0,54,0.00,,---,0.02,5.00,VWS V14.00,2013-01-05 21:26:00,
2013-01-05 16:31:00,35.3,20.8,30.30,NNW,339,6.0,7.0,55,0.00,,---,0.02,5.00,VWS V14.00,2013-01-05 21:31:00,
2013-01-05 16:36:00,35.0,20.5,30.31,NNW,346,1.0,5.0,55,0.00,,---,0.02,0.00,VWS V14.00,2013-01-05 21:36:00,
2013-01-05 16:41:00,34.7,20.2,30.31,NNW,346,3.0,4.0,55,0.00,,---,0.02,0.00,VWS V14.00,2013-01-05 21:41:00,
2013-01-05 16:46:00,34.4,20.3,30.31,NNW,346,0.0,3.0,56,0.00,,---,0.02,0.00,VWS V14.00,2013-01-05 21:46:00,
2013-01-05 16:51:00,34.1,20.5,30.32,NNW,343,3.0,5.0,57,0.00,,---,0.02,0.00,VWS V14.00,2013-01-05 21:51:00,
2013-01-05 16:56:00,33.8,20.6,30.32,NW,326,0.0,4.0,58,0.00,,---,0.02,0.00,VWS V14.00,2013-01-05 21:56:00,
2013-01-05 17:01:00,33.7,20.5,30.32,NNW,329,0.0,1.0,58,0.00,,---,0.02,0.00,VWS V14.00,2013-01-05 22:01:00,
2013-01-05 17:06:00,33.5,20.3,30.33,NNW,329,0.0,0.0,58,0.00,,---,0.02,0.00,VWS V14.00,2013-01-05 22:06:00,
2013-01-05 17:11:00,33.2,20.0,30.33,NNW,329,1.0,2.0,58,0.00,,---,0.02,0.00,VWS V14.00,2013-01-05 22:11:00,
2013-01-05 17:16:00,32.9,20.2,30.33,NNW,329,0.0,1.0,59,0.00,,---,0.02,0.00,VWS V14.00,2013-01-05 22:16:00,
2013-01-05 17:21:00,32.8,20.1,30.33,NNW,329,0.0,1.0,59,0.00,,---,0.02,0.00,VWS V14.00,2013-01-05 22:21:00,
2013-01-05 17:26:00,32.8,20.1,30.33,NNW,329,0.0,0.0,59,0.00,,---,0.02,0.00,VWS V14.00,2013-01-05 22:26:00,
2013-01-05 17:31:00,32.7,20.0,30.33,NNW,329,0.0,0.0,59,0.00,,---,0.02,0.00,VWS V14.00,2013-01-05 22:31:00,
2013-01-05 17:36:00,32.4,20.1,30.33,NNW,329,0.0,0.0,60,0.00,,---,0.02,0.00,VWS V14.00,2013-01-05 22:36:00,
2013-01-05 17:41:00,31.9,20.0,30.34,NNW,329,0.0,1.0,61,0.00,,---,0.02,0.00,VWS V14.00,2013-01-05 22:41:00,
2013-01-05 17:46:00,31.5,20.0,30.34,NNW,329,0.0,1.0,62,0.00,,---,0.02,0.00,VWS V14.00,2013-01-05 22:46:00,
2013-01-05 17:51:00,31.2,20.1,30.34,NNW,329,0.0,0.0,63,0.00,,---,0.02,0.00,VWS V14.00,2013-01-05 22:51:00,
2013-01-05 17:56:00,31.2,20.1,30.35,NNW,329,0.0,0.0,63,0.00,,---,0.02,0.00,VWS V14.00,2013-01-05 22:56:00,
2013-01-05 18:01:00,31.0,19.9,30.35,NNW,329,0.0,0.0,63,0.00,,---,0.02,0.00,VWS V14.00,2013-01-05 23:01:00,
2013-01-05 18:06:00,31.0,19.5,30.35,NNW,329,0.0,0.0,62,0.00,,---,0.02,0.00,VWS V14.00,2013-01-05 23:06:00,
2013-01-05 18:11:00,30.7,19.6,30.35,NNW,329,0.0,1.0,63,0.00,,---,0.02,0.00,VWS V14.00,2013-01-05 23:11:00,
2013-01-05 18:16:00,30.6,19.5,30.36,NNW,329,0.0,2.0,63,0.00,,---,0.02,0.00,VWS V14.00,2013-01-05 23:16:00,
2013-01-05 18:21:00,30.4,19.3,30.36,NNW,329,0.0,0.0,63,0.00,,---,0.02,0.00,VWS V14.00,2013-01-05 23:21:00,
2013-01-05 18:26:00,30.3,19.6,30.35,NNW,329,0.0,0.0,64,0.00,,---,0.02,0.00,VWS V14.00,2013-01-05 23:26:00,
2013-01-05 18:31:00,30.1,19.4,30.36,NNW,329,0.0,0.0,64,0.00,,---,0.02,0.00,VWS V14.00,2013-01-05 23:31:00,
2013-01-05 18:36:00,30.0,19.3,30.36,NNW,329,0.0,0.0,64,0.00,,---,0.02,0.00,VWS V14.00,2013-01-05 23:36:00,
2013-01-05 18:41:00,29.8,19.5,30.36,NNW,329,0.0,0.0,65,0.00,,---,0.02,0.00,VWS V14.00,2013-01-05 23:41:00,
2013-01-05 18:46:00,29.7,19.4,30.36,NNW,329,0.0,0.0,65,0.00,,---,0.02,0.00,VWS V14.00,2013-01-05 23:46:00,
2013-01-05 18:51:00,29.4,19.5,30.36,NNW,329,0.0,0.0,66,0.00,,---,0.02,0.00,VWS V14.00,2013-01-05 23:51:00,
2013-01-05 18:56:00,28.8,19.2,30.36,NNW,329,0.0,0.0,67,0.00,,---,0.02,0.00,VWS V14.00,2013-01-05 23:56:00,
2013-01-05 19:01:00,28.5,19.3,30.36,NNW,329,0.0,1.0,68,0.00,,---,0.02,0.00,VWS V14.00,2013-01-06 00:01:00,
2013-01-05 19:06:00,28.4,19.2,30.36,NNW,329,0.0,0.0,68,0.00,,---,0.02,0.00,VWS V14.00,2013-01-06 00:06:00,
2013-01-05 19:11:00,28.2,19.0,30.37,NNW,329,0.0,0.0,68,0.00,,---,0.02,0.00,VWS V14.00,2013-01-06 00:11:00,
2013-01-05 19:15:00,28.4,19.2,30.35,NNW,329,0.0,0.0,68,0.00,,---,0.02,0.00,VWS V14.00,2013-01-06 00:15:00,
2013-01-05 19:20:00,28.4,19.2,30.35,NNW,329,0.0,0.0,68,0.00,,---,0.02,0.00,VWS V14.00,2013-01-06 00:20:00,
2013-01-05 19:25:00,28.4,19.2,30.35,NNW,329,0.0,0.0,68,0.00,,---,0.02,0.00,VWS V14.00,2013-01-06 00:25:00,
2013-01-05 19:30:00,28.2,19.4,30.34,NNW,329,0.0,0.0,69,0.00,,---,0.02,0.00,VWS V14.00,2013-01-06 00:30:00,
2013-01-05 19:35:00,28.2,19.4,30.35,NNW,329,0.0,0.0,69,0.00,,---,0.02,0.00,VWS V14.00,2013-01-06 00:35:00,
2013-01-05 19:40:00,28.4,19.2,30.35,NNW,329,0.0,1.0,68,0.00,,---,0.02,0.00,VWS V14.00,2013-01-06 00:40:00,
2013-01-05 19:45:00,28.4,19.2,30.35,NNW,329,0.0,0.0,68,0.00,,---,0.02,0.00,VWS V14.00,2013-01-06 00:45:00,
2013-01-05 19:50:00,28.4,19.2,30.35,NNW,329,0.0,0.0,68,0.00,,---,0.02,0.00,VWS V14.00,2013-01-06 00:50:00,
2013-01-05 19:55:00,28.1,18.9,30.35,NNW,329,0.0,0.0,68,0.00,,---,0.02,0.00,VWS V14.00,2013-01-06 00:55:00,
2013-01-05 20:00:00,27.8,18.6,30.36,NNW,329,0.0,0.0,68,0.00,,---,0.02,0.00,VWS V14.00,2013-01-06 01:00:00,
2013-01-05 20:05:00,27.6,18.4,30.35,NNW,329,0.0,0.0,68,0.00,,---,0.02,0.00,VWS V14.00,2013-01-06 01:05:00,
2013-01-05 20:10:00,27.5,18.7,30.35,NNW,329,0.0,0.0,69,0.00,,---,0.02,0.00,VWS V14.00,2013-01-06 01:10:00,
2013-01-05 20:15:00,27.3,18.5,30.35,NNW,329,1.0,1.0,69,0.00,,---,0.02,0.00,VWS V14.00,2013-01-06 01:15:00,
2013-01-05 20:20:00,27.0,18.5,30.35,NNW,329,0.0,0.0,70,0.00,,---,0.02,0.00,VWS V14.00,2013-01-06 01:20:00,
2013-01-05 20:25:00,26.6,18.5,30.35,NNW,329,1.0,2.0,71,0.00,,---,0.02,0.00,VWS V14.00,2013-01-06 01:25:00,
2013-01-05 20:30:00,26.4,18.6,30.35,NNW,329,1.0,2.0,72,0.00,,---,0.02,0.00,VWS V14.00,2013-01-06 01:30:00,
2013-01-05 20:35:00,26.3,18.5,30.35,NNW,329,0.0,0.0,72,0.00,,---,0.02,0.00,VWS V14.00,2013-01-06 01:35:00,
2013-01-05 20:40:00,26.1,18.3,30.35,NNW,329,0.0,0.0,72,0.00,,---,0.02,0.00,VWS V14.00,2013-01-06 01:40:00,
2013-01-05 20:45:00,26.1,18.3,30.35,NNW,329,0.0,0.0,72,0.00,,---,0.02,0.00,VWS V14.00,2013-01-06 01:45:00,
2013-01-05 20:50:00,26.3,18.2,30.35,NNW,329,0.0,0.0,71,0.00,,---,0.02,0.00,VWS V14.00,2013-01-06 01:50:00,
2013-01-05 20:55:00,26.3,18.2,30.35,NNW,329,0.0,1.0,71,0.00,,---,0.02,0.00,VWS V14.00,2013-01-06 01:55:00,
2013-01-05 21:00:00,26.1,18.0,30.35,NNW,329,0.0,0.0,71,0.00,,---,0.02,0.00,VWS V14.00,2013-01-06 02:00:00,
2013-01-05 21:05:00,26.0,18.2,30.35,NNW,329,0.0,0.0,72,0.00,,---,0.02,0.00,VWS V14.00,2013-01-06 02:05:00,
2013-01-05 21:10:00,25.8,18.0,30.35,NNW,329,0.0,0.0,72,0.00,,---,0.02,0.00,VWS V14.00,2013-01-06 02:10:00,
2013-01-05 21:15:00,25.7,17.9,30.34,NNW,329,0.0,0.0,72,0.00,,---,0.02,0.00,VWS V14.00,2013-01-06 02:15:00,
2013-01-05 21:20:00,25.6,17.8,30.34,NNW,329,0.0,0.0,72,0.00,,---,0.02,0.00,VWS V14.00,2013-01-06 02:20:00,
2013-01-05 21:25:00,25.6,18.2,30.33,NNW,329,0.0,0.0,73,0.00,,---,0.02,0.00,VWS V14.00,2013-01-06 02:25:00,
2013-01-05 21:30:00,25.4,18.0,30.33,NNW,329,0.0,1.0,73,0.00,,---,0.02,0.00,VWS V14.00,2013-01-06 02:30:00,
2013-01-05 21:35:00,25.3,17.9,30.33,NNW,329,0.0,0.0,73,0.00,,---,0.02,0.00,VWS V14.00,2013-01-06 02:35:00,
2013-01-05 21:40:00,25.1,17.7,30.33,NNW,329,0.0,0.0,73,0.00,,---,0.02,0.00,VWS V14.00,2013-01-06 02:40:00,
2013-01-05 21:45:00,25.1,17.7,30.34,NNW,329,0.0,0.0,73,0.00,,---,0.02,0.00,VWS V14.00,2013-01-06 02:45:00,
2013-01-05 21:50:00,25.1,17.7,30.33,NNW,329,0.0,0.0,73,0.00,,---,0.02,0.00,VWS V14.00,2013-01-06 02:50:00,
2013-01-05 21:55:00,25.1,17.7,30.34,NNW,329,0.0,0.0,73,0.00,,---,0.02,0.00,VWS V14.00,2013-01-06 02:55:00,
2013-01-05 22:00:00,25.0,17.6,30.33,NNW,329,0.0,0.0,73,0.00,,---,0.02,0.00,VWS V14.00,2013-01-06 03:00:00,
2013-01-05 22:05:00,24.8,17.7,30.33,NNW,329,0.0,2.0,74,0.00,,---,0.02,0.00,VWS V14.00,2013-01-06 03:05:00,
2013-01-05 22:10:00,24.7,17.6,30.32,NNW,329,0.0,0.0,74,0.00,,---,0.02,0.00,VWS V14.00,2013-01-06 03:10:00,
2013-01-05 22:15:00,24.7,17.6,30.32,NNW,329,0.0,0.0,74,0.00,,---,0.02,0.00,VWS V14.00,2013-01-06 03:15:00,
2013-01-05 22:20:00,24.5,17.4,30.32,NNW,329,0.0,0.0,74,0.00,,---,0.02,0.00,VWS V14.00,2013-01-06 03:20:00,
2013-01-05 22:25:00,24.5,17.7,30.32,NNW,329,0.0,0.0,75,0.00,,---,0.02,0.00,VWS V14.00,2013-01-06 03:25:00,
2013-01-05 22:30:00,24.5,17.7,30.31,NNW,329,0.0,0.0,75,0.00,,---,0.02,0.00,VWS V14.00,2013-01-06 03:30:00,
2013-01-05 22:35:00,24.5,17.7,30.31,NNW,329,1.0,1.0,75,0.00,,---,0.02,0.00,VWS V14.00,2013-01-06 03:35:00,
2013-01-05 22:40:00,24.4,17.6,30.30,NNW,329,0.0,0.0,75,0.00,,---,0.02,0.00,VWS V14.00,2013-01-06 03:40:00,
2013-01-05 22:45:00,24.2,17.4,30.30,NNW,329,0.0,0.0,75,0.00,,---,0.02,0.00,VWS V14.00,2013-01-06 03:45:00,
2013-01-05 22:50:00,24.4,17.6,30.30,NNW,329,0.0,0.0,75,0.00,,---,0.02,0.00,VWS V14.00,2013-01-06 03:50:00,
2013-01-05 22:55:00,24.4,17.6,30.30,NNW,329,0.0,0.0,75,0.00,,---,0.02,0.00,VWS V14.00,2013-01-06 03:55:00,
2013-01-05 23:00:00,24.5,17.7,30.30,NNW,329,0.0,0.0,75,0.00,,---,0.02,0.00,VWS V14.00,2013-01-06 04:00:00,
2013-01-05 23:05:00,24.5,18.0,30.30,NNW,329,0.0,1.0,76,0.00,,---,0.02,0.00,VWS V14.00,2013-01-06 04:05:00,
2013-01-05 23:10:00,24.5,18.0,30.29,NNW,329,1.0,2.0,76,0.00,,---,0.02,0.00,VWS V14.00,2013-01-06 04:10:00,
2013-01-05 23:15:00,24.4,17.9,30.29,NNW,329,0.0,0.0,76,0.00,,---,0.00,0.00,VWS V14.00,2013-01-06 04:15:00,
2013-01-05 23:20:00,24.4,17.9,30.29,NNW,329,0.0,0.0,76,0.00,,---,0.00,0.00,VWS V14.00,2013-01-06 04:20:00,
2013-01-05 23:25:00,24.4,17.9,30.30,NNW,329,0.0,0.0,76,0.00,,---,0.00,0.00,VWS V14.00,2013-01-06 04:25:00,
2013-01-05 23:30:00,24.4,18.2,30.29,NNW,329,0.0,0.0,77,0.00,,---,0.00,0.00,VWS V14.00,2013-01-06 04:30:00,
2013-01-05 23:35:00,24.5,18.3,30.28,NNW,329,0.0,0.0,77,0.00,,---,0.00,0.00,VWS V14.00,2013-01-06 04:35:00,
2013-01-05 23:40:00,24.5,18.6,30.29,NNW,329,0.0,0.0,78,0.00,,---,0.00,0.00,VWS V14.00,2013-01-06 04:40:00,
2013-01-05 23:45:00,24.5,18.6,30.29,NNW,329,0.0,0.0,78,0.00,,---,0.00,0.00,VWS V14.00,2013-01-06 04:45:00,
2013-01-05 23:50:00,24.5,18.6,30.27,NNW,329,0.0,0.0,78,0.00,,---,0.00,0.00,VWS V14.00,2013-01-06 04:50:00,
2013-01-05 23:55:00,24.5,18.6,30.27,NNW,329,0.0,0.0,78,0.00,,---,0.00,0.00,VWS V14.00,2013-01-06 04:55:00,